sensor_id;sensor_type;location;lat;lon;timestamp;P1;durP1;ratioP1;P2;durP2;ratioP2
27383;SDS011;14851;51.166;4.760;2023-08-24T00:02:13;6.57;;;3.40;;
27383;SDS011;14851;51.166;4.760;2023-08-24T00:04:39;5.88;;;3.58;;
27383;SDS011;14851;51.166;4.760;2023-08-24T00:07:05;7.55;;;4.28;;
27383;SDS011;14851;51.166;4.760;2023-08-24T00:09:32;5.95;;;4.13;;
27383;SDS011;14851;51.166;4.760;2023-08-24T00:12:02;4.47;;;3.40;;
27383;SDS011;14851;51.166;4.760;2023-08-24T00:14:27;6.13;;;4.15;;
27383;SDS011;14851;51.166;4.760;2023-08-24T00:16:53;6.28;;;4.20;;
27383;SDS011;14851;51.166;4.760;2023-08-24T00:19:20;5.75;;;3.63;;
27383;SDS011;14851;51.166;4.760;2023-08-24T00:21:46;7.55;;;4.00;;
27383;SDS011;14851;51.166;4.760;2023-08-24T00:24:11;6.68;;;4.00;;
27383;SDS011;14851;51.166;4.760;2023-08-24T00:26:40;7.75;;;3.60;;
27383;SDS011;14851;51.166;4.760;2023-08-24T00:29:09;5.20;;;3.45;;
27383;SDS011;14851;51.166;4.760;2023-08-24T00:31:36;8.60;;;4.03;;
27383;SDS011;14851;51.166;4.760;2023-08-24T00:34:05;14.75;;;4.25;;
27383;SDS011;14851;51.166;4.760;2023-08-24T00:36:34;5.80;;;3.80;;
27383;SDS011;14851;51.166;4.760;2023-08-24T00:39:02;6.25;;;4.38;;
27383;SDS011;14851;51.166;4.760;2023-08-24T00:41:28;10.25;;;4.93;;
27383;SDS011;14851;51.166;4.760;2023-08-24T00:43:57;6.50;;;4.60;;
27383;SDS011;14851;51.166;4.760;2023-08-24T00:46:23;7.38;;;4.10;;
27383;SDS011;14851;51.166;4.760;2023-08-24T00:48:53;7.65;;;4.38;;
27383;SDS011;14851;51.166;4.760;2023-08-24T00:51:23;6.60;;;4.47;;
27383;SDS011;14851;51.166;4.760;2023-08-24T00:53:52;6.55;;;4.32;;
27383;SDS011;14851;51.166;4.760;2023-08-24T00:56:21;9.70;;;5.63;;
27383;SDS011;14851;51.166;4.760;2023-08-24T00:58:50;6.72;;;3.55;;
27383;SDS011;14851;51.166;4.760;2023-08-24T01:01:20;7.22;;;4.40;;
27383;SDS011;14851;51.166;4.760;2023-08-24T01:03:46;6.70;;;3.78;;
27383;SDS011;14851;51.166;4.760;2023-08-24T01:06:15;9.40;;;4.03;;
27383;SDS011;14851;51.166;4.760;2023-08-24T01:08:41;7.97;;;4.80;;
27383;SDS011;14851;51.166;4.760;2023-08-24T01:11:22;6.30;;;4.07;;
27383;SDS011;14851;51.166;4.760;2023-08-24T01:13:54;4.43;;;3.80;;
27383;SDS011;14851;51.166;4.760;2023-08-24T01:16:26;8.23;;;3.58;;
27383;SDS011;14851;51.166;4.760;2023-08-24T01:18:58;6.65;;;4.10;;
27383;SDS011;14851;51.166;4.760;2023-08-24T01:21:28;7.28;;;4.22;;
27383;SDS011;14851;51.166;4.760;2023-08-24T01:26:36;8.18;;;5.05;;
27383;SDS011;14851;51.166;4.760;2023-08-24T01:29:02;9.80;;;4.65;;
27383;SDS011;14851;51.166;4.760;2023-08-24T01:31:30;9.40;;;4.45;;
27383;SDS011;14851;51.166;4.760;2023-08-24T01:33:59;7.30;;;4.05;;
27383;SDS011;14851;51.166;4.760;2023-08-24T01:36:26;7.10;;;4.57;;
27383;SDS011;14851;51.166;4.760;2023-08-24T01:38:56;7.70;;;5.15;;
27383;SDS011;14851;51.166;4.760;2023-08-24T01:41:32;7.80;;;4.47;;
27383;SDS011;14851;51.166;4.760;2023-08-24T01:44:08;6.30;;;4.85;;
27383;SDS011;14851;51.166;4.760;2023-08-24T01:46:40;7.43;;;4.68;;
27383;SDS011;14851;51.166;4.760;2023-08-24T01:49:10;8.75;;;4.60;;
27383;SDS011;14851;51.166;4.760;2023-08-24T01:51:38;7.18;;;4.55;;
27383;SDS011;14851;51.166;4.760;2023-08-24T01:54:07;10.48;;;4.55;;
27383;SDS011;14851;51.166;4.760;2023-08-24T01:56:33;7.32;;;5.20;;
27383;SDS011;14851;51.166;4.760;2023-08-24T01:58:59;9.32;;;4.47;;
27383;SDS011;14851;51.166;4.760;2023-08-24T02:01:27;9.63;;;5.63;;
27383;SDS011;14851;51.166;4.760;2023-08-24T02:03:53;8.90;;;4.43;;
27383;SDS011;14851;51.166;4.760;2023-08-24T02:06:23;6.55;;;4.82;;
27383;SDS011;14851;51.166;4.760;2023-08-24T02:08:53;8.52;;;4.65;;
27383;SDS011;14851;51.166;4.760;2023-08-24T02:11:21;8.90;;;5.20;;
27383;SDS011;14851;51.166;4.760;2023-08-24T02:13:47;8.77;;;4.40;;
27383;SDS011;14851;51.166;4.760;2023-08-24T02:16:15;6.95;;;5.40;;
27383;SDS011;14851;51.166;4.760;2023-08-24T02:18:41;10.95;;;4.45;;
27383;SDS011;14851;51.166;4.760;2023-08-24T02:21:08;10.57;;;5.80;;
27383;SDS011;14851;51.166;4.760;2023-08-24T02:23:36;11.85;;;5.50;;
27383;SDS011;14851;51.166;4.760;2023-08-24T02:26:05;9.73;;;6.13;;
27383;SDS011;14851;51.166;4.760;2023-08-24T02:28:35;12.23;;;6.03;;
27383;SDS011;14851;51.166;4.760;2023-08-24T02:33:30;9.82;;;5.78;;
27383;SDS011;14851;51.166;4.760;2023-08-24T02:35:57;11.38;;;7.28;;
27383;SDS011;14851;51.166;4.760;2023-08-24T02:38:23;10.85;;;6.65;;
27383;SDS011;14851;51.166;4.760;2023-08-24T02:40:59;9.57;;;6.57;;
27383;SDS011;14851;51.166;4.760;2023-08-24T02:43:29;9.50;;;7.32;;
27383;SDS011;14851;51.166;4.760;2023-08-24T02:45:59;7.47;;;6.50;;
27383;SDS011;14851;51.166;4.760;2023-08-24T02:48:26;11.38;;;6.88;;
27383;SDS011;14851;51.166;4.760;2023-08-24T02:50:56;10.13;;;7.18;;
27383;SDS011;14851;51.166;4.760;2023-08-24T02:53:23;9.95;;;7.10;;
27383;SDS011;14851;51.166;4.760;2023-08-24T02:55:49;8.95;;;7.20;;
27383;SDS011;14851;51.166;4.760;2023-08-24T02:58:18;8.30;;;7.13;;
27383;SDS011;14851;51.166;4.760;2023-08-24T03:00:44;10.80;;;7.32;;
27383;SDS011;14851;51.166;4.760;2023-08-24T03:03:13;10.02;;;7.03;;
27383;SDS011;14851;51.166;4.760;2023-08-24T03:05:40;8.98;;;6.97;;
27383;SDS011;14851;51.166;4.760;2023-08-24T03:08:16;9.80;;;7.38;;
27383;SDS011;14851;51.166;4.760;2023-08-24T03:10:45;9.35;;;7.00;;
27383;SDS011;14851;51.166;4.760;2023-08-24T03:13:11;9.00;;;7.70;;
27383;SDS011;14851;51.166;4.760;2023-08-24T03:15:40;11.82;;;7.53;;
27383;SDS011;14851;51.166;4.760;2023-08-24T03:18:06;11.95;;;7.78;;
27383;SDS011;14851;51.166;4.760;2023-08-24T03:20:34;9.63;;;7.30;;
27383;SDS011;14851;51.166;4.760;2023-08-24T03:23:00;9.65;;;6.70;;
27383;SDS011;14851;51.166;4.760;2023-08-24T03:25:26;9.82;;;7.60;;
27383;SDS011;14851;51.166;4.760;2023-08-24T03:27:53;9.68;;;6.95;;
27383;SDS011;14851;51.166;4.760;2023-08-24T03:30:20;14.98;;;7.30;;
27383;SDS011;14851;51.166;4.760;2023-08-24T03:32:49;9.32;;;6.85;;
27383;SDS011;14851;51.166;4.760;2023-08-24T03:35:15;9.40;;;7.13;;
27383;SDS011;14851;51.166;4.760;2023-08-24T03:37:41;11.23;;;8.20;;
27383;SDS011;14851;51.166;4.760;2023-08-24T03:40:07;13.10;;;7.53;;
27383;SDS011;14851;51.166;4.760;2023-08-24T03:42:33;8.77;;;7.45;;
27383;SDS011;14851;51.166;4.760;2023-08-24T03:45:02;11.40;;;8.13;;
27383;SDS011;14851;51.166;4.760;2023-08-24T03:47:29;10.07;;;8.63;;
27383;SDS011;14851;51.166;4.760;2023-08-24T03:49:57;10.25;;;7.53;;
27383;SDS011;14851;51.166;4.760;2023-08-24T03:52:22;10.88;;;7.65;;
27383;SDS011;14851;51.166;4.760;2023-08-24T03:54:48;15.43;;;8.00;;
27383;SDS011;14851;51.166;4.760;2023-08-24T03:57:16;12.65;;;7.82;;
27383;SDS011;14851;51.166;4.760;2023-08-24T03:59:43;11.00;;;7.88;;
27383;SDS011;14851;51.166;4.760;2023-08-24T04:02:09;10.88;;;7.05;;
27383;SDS011;14851;51.166;4.760;2023-08-24T04:04:37;10.60;;;7.38;;
27383;SDS011;14851;51.166;4.760;2023-08-24T04:07:06;12.70;;;7.85;;
27383;SDS011;14851;51.166;4.760;2023-08-24T04:09:33;11.15;;;8.10;;
27383;SDS011;14851;51.166;4.760;2023-08-24T04:11:59;8.52;;;7.60;;
27383;SDS011;14851;51.166;4.760;2023-08-24T04:14:28;9.32;;;7.38;;
27383;SDS011;14851;51.166;4.760;2023-08-24T04:16:55;9.65;;;7.65;;
27383;SDS011;14851;51.166;4.760;2023-08-24T04:19:21;9.02;;;7.32;;
27383;SDS011;14851;51.166;4.760;2023-08-24T04:21:47;10.07;;;7.55;;
27383;SDS011;14851;51.166;4.760;2023-08-24T04:24:15;13.38;;;7.88;;
27383;SDS011;14851;51.166;4.760;2023-08-24T04:26:41;12.38;;;8.13;;
27383;SDS011;14851;51.166;4.760;2023-08-24T04:29:06;11.95;;;8.18;;
27383;SDS011;14851;51.166;4.760;2023-08-24T04:31:32;11.43;;;9.05;;
27383;SDS011;14851;51.166;4.760;2023-08-24T04:34:02;9.93;;;7.53;;
27383;SDS011;14851;51.166;4.760;2023-08-24T04:36:30;10.30;;;7.53;;
27383;SDS011;14851;51.166;4.760;2023-08-24T04:38:55;8.27;;;7.10;;
27383;SDS011;14851;51.166;4.760;2023-08-24T04:41:25;18.23;;;8.38;;
27383;SDS011;14851;51.166;4.760;2023-08-24T04:43:55;11.25;;;7.85;;
27383;SDS011;14851;51.166;4.760;2023-08-24T04:46:21;14.07;;;8.27;;
27383;SDS011;14851;51.166;4.760;2023-08-24T04:48:47;13.35;;;8.55;;
27383;SDS011;14851;51.166;4.760;2023-08-24T04:51:13;10.95;;;7.82;;
27383;SDS011;14851;51.166;4.760;2023-08-24T04:53:42;10.35;;;7.82;;
27383;SDS011;14851;51.166;4.760;2023-08-24T04:56:10;10.85;;;6.90;;
27383;SDS011;14851;51.166;4.760;2023-08-24T04:58:56;10.50;;;6.68;;
27383;SDS011;14851;51.166;4.760;2023-08-24T05:01:28;10.63;;;6.68;;
27383;SDS011;14851;51.166;4.760;2023-08-24T05:03:57;9.30;;;6.28;;
27383;SDS011;14851;51.166;4.760;2023-08-24T05:06:23;8.02;;;6.72;;
27383;SDS011;14851;51.166;4.760;2023-08-24T05:08:49;7.35;;;5.65;;
27383;SDS011;14851;51.166;4.760;2023-08-24T05:11:19;7.32;;;5.93;;
27383;SDS011;14851;51.166;4.760;2023-08-24T05:13:49;11.65;;;5.57;;
27383;SDS011;14851;51.166;4.760;2023-08-24T05:16:15;9.00;;;5.55;;
27383;SDS011;14851;51.166;4.760;2023-08-24T05:18:41;7.80;;;6.25;;
27383;SDS011;14851;51.166;4.760;2023-08-24T05:21:07;8.68;;;6.65;;
27383;SDS011;14851;51.166;4.760;2023-08-24T05:23:34;9.73;;;6.57;;
27383;SDS011;14851;51.166;4.760;2023-08-24T05:26:05;7.55;;;6.47;;
27383;SDS011;14851;51.166;4.760;2023-08-24T05:28:33;10.07;;;5.95;;
27383;SDS011;14851;51.166;4.760;2023-08-24T05:31:03;13.10;;;6.03;;
27383;SDS011;14851;51.166;4.760;2023-08-24T05:33:31;8.27;;;5.53;;
27383;SDS011;14851;51.166;4.760;2023-08-24T05:36:00;6.85;;;5.72;;
27383;SDS011;14851;51.166;4.760;2023-08-24T05:38:26;11.75;;;5.63;;
27383;SDS011;14851;51.166;4.760;2023-08-24T05:40:52;8.75;;;6.47;;
27383;SDS011;14851;51.166;4.760;2023-08-24T05:43:18;7.35;;;5.75;;
27383;SDS011;14851;51.166;4.760;2023-08-24T05:45:47;10.10;;;6.20;;
27383;SDS011;14851;51.166;4.760;2023-08-24T05:48:17;10.98;;;7.38;;
27383;SDS011;14851;51.166;4.760;2023-08-24T05:50:44;11.32;;;7.28;;
27383;SDS011;14851;51.166;4.760;2023-08-24T05:53:11;9.88;;;7.10;;
27383;SDS011;14851;51.166;4.760;2023-08-24T05:55:39;8.15;;;7.10;;
27383;SDS011;14851;51.166;4.760;2023-08-24T05:58:05;9.98;;;7.38;;
27383;SDS011;14851;51.166;4.760;2023-08-24T06:00:33;9.80;;;7.60;;
27383;SDS011;14851;51.166;4.760;2023-08-24T06:03:02;8.13;;;6.97;;
27383;SDS011;14851;51.166;4.760;2023-08-24T06:05:30;12.10;;;7.70;;
27383;SDS011;14851;51.166;4.760;2023-08-24T06:07:56;10.02;;;7.10;;
27383;SDS011;14851;51.166;4.760;2023-08-24T06:10:25;10.95;;;7.20;;
27383;SDS011;14851;51.166;4.760;2023-08-24T06:12:53;10.20;;;8.55;;
27383;SDS011;14851;51.166;4.760;2023-08-24T06:15:18;10.68;;;8.55;;
27383;SDS011;14851;51.166;4.760;2023-08-24T06:17:44;9.45;;;7.90;;
27383;SDS011;14851;51.166;4.760;2023-08-24T06:20:12;12.23;;;8.73;;
27383;SDS011;14851;51.166;4.760;2023-08-24T06:22:40;13.45;;;8.90;;
27383;SDS011;14851;51.166;4.760;2023-08-24T06:25:08;9.75;;;7.90;;
27383;SDS011;14851;51.166;4.760;2023-08-24T06:27:35;10.00;;;7.05;;
27383;SDS011;14851;51.166;4.760;2023-08-24T06:30:01;10.82;;;7.65;;
27383;SDS011;14851;51.166;4.760;2023-08-24T06:32:28;10.55;;;8.65;;
27383;SDS011;14851;51.166;4.760;2023-08-24T06:34:54;13.00;;;8.10;;
27383;SDS011;14851;51.166;4.760;2023-08-24T06:37:20;9.93;;;8.20;;
27383;SDS011;14851;51.166;4.760;2023-08-24T06:39:46;10.93;;;7.78;;
27383;SDS011;14851;51.166;4.760;2023-08-24T06:42:12;11.02;;;7.90;;
27383;SDS011;14851;51.166;4.760;2023-08-24T06:44:39;11.75;;;8.40;;
27383;SDS011;14851;51.166;4.760;2023-08-24T06:47:05;10.93;;;8.13;;
27383;SDS011;14851;51.166;4.760;2023-08-24T06:49:31;10.23;;;7.47;;
27383;SDS011;14851;51.166;4.760;2023-08-24T06:51:58;9.90;;;6.65;;
27383;SDS011;14851;51.166;4.760;2023-08-24T06:54:26;10.95;;;8.15;;
27383;SDS011;14851;51.166;4.760;2023-08-24T06:56:52;10.18;;;6.38;;
27383;SDS011;14851;51.166;4.760;2023-08-24T06:59:19;7.47;;;5.78;;
27383;SDS011;14851;51.166;4.760;2023-08-24T07:01:45;9.15;;;7.20;;
27383;SDS011;14851;51.166;4.760;2023-08-24T07:04:12;10.20;;;7.60;;
27383;SDS011;14851;51.166;4.760;2023-08-24T07:06:38;8.60;;;6.85;;
27383;SDS011;14851;51.166;4.760;2023-08-24T07:09:04;7.57;;;6.43;;
27383;SDS011;14851;51.166;4.760;2023-08-24T07:11:32;11.32;;;8.30;;
27383;SDS011;14851;51.166;4.760;2023-08-24T07:13:58;8.43;;;6.57;;
27383;SDS011;14851;51.166;4.760;2023-08-24T07:16:26;10.10;;;8.95;;
27383;SDS011;14851;51.166;4.760;2023-08-24T07:18:52;10.50;;;7.15;;
27383;SDS011;14851;51.166;4.760;2023-08-24T07:21:18;8.52;;;5.60;;
27383;SDS011;14851;51.166;4.760;2023-08-24T07:23:44;12.65;;;8.40;;
27383;SDS011;14851;51.166;4.760;2023-08-24T07:26:10;10.50;;;7.55;;
27383;SDS011;14851;51.166;4.760;2023-08-24T07:28:36;8.10;;;5.68;;
27383;SDS011;14851;51.166;4.760;2023-08-24T07:31:08;7.88;;;6.15;;
27383;SDS011;14851;51.166;4.760;2023-08-24T07:33:41;6.78;;;5.85;;
27383;SDS011;14851;51.166;4.760;2023-08-24T07:36:10;7.80;;;6.60;;
27383;SDS011;14851;51.166;4.760;2023-08-24T07:38:36;10.48;;;6.13;;
27383;SDS011;14851;51.166;4.760;2023-08-24T07:41:02;7.93;;;5.22;;
27383;SDS011;14851;51.166;4.760;2023-08-24T07:43:28;8.50;;;6.28;;
27383;SDS011;14851;51.166;4.760;2023-08-24T07:45:54;8.18;;;5.28;;
27383;SDS011;14851;51.166;4.760;2023-08-24T07:48:21;8.95;;;6.88;;
27383;SDS011;14851;51.166;4.760;2023-08-24T07:50:47;7.05;;;4.80;;
27383;SDS011;14851;51.166;4.760;2023-08-24T07:53:13;10.60;;;6.32;;
27383;SDS011;14851;51.166;4.760;2023-08-24T07:55:39;6.93;;;4.40;;
27383;SDS011;14851;51.166;4.760;2023-08-24T07:58:05;7.03;;;4.78;;
27383;SDS011;14851;51.166;4.760;2023-08-24T08:00:31;8.25;;;5.53;;
27383;SDS011;14851;51.166;4.760;2023-08-24T08:03:00;8.13;;;5.72;;
27383;SDS011;14851;51.166;4.760;2023-08-24T08:05:29;7.45;;;4.80;;
27383;SDS011;14851;51.166;4.760;2023-08-24T08:07:57;8.07;;;4.70;;
27383;SDS011;14851;51.166;4.760;2023-08-24T08:10:25;7.15;;;5.22;;
27383;SDS011;14851;51.166;4.760;2023-08-24T08:12:52;12.63;;;7.72;;
27383;SDS011;14851;51.166;4.760;2023-08-24T08:15:17;11.73;;;7.10;;
27383;SDS011;14851;51.166;4.760;2023-08-24T08:17:44;8.82;;;6.18;;
27383;SDS011;14851;51.166;4.760;2023-08-24T08:20:11;7.05;;;4.68;;
27383;SDS011;14851;51.166;4.760;2023-08-24T08:22:38;9.90;;;6.38;;
27383;SDS011;14851;51.166;4.760;2023-08-24T08:25:05;9.98;;;5.60;;
27383;SDS011;14851;51.166;4.760;2023-08-24T08:27:31;14.70;;;6.43;;
27383;SDS011;14851;51.166;4.760;2023-08-24T08:29:58;8.77;;;6.22;;
27383;SDS011;14851;51.166;4.760;2023-08-24T08:32:25;8.38;;;4.68;;
27383;SDS011;14851;51.166;4.760;2023-08-24T08:34:55;5.38;;;3.72;;
27383;SDS011;14851;51.166;4.760;2023-08-24T08:37:23;10.93;;;5.65;;
27383;SDS011;14851;51.166;4.760;2023-08-24T08:39:49;12.35;;;7.22;;
27383;SDS011;14851;51.166;4.760;2023-08-24T08:42:15;11.82;;;6.88;;
27383;SDS011;14851;51.166;4.760;2023-08-24T08:44:45;12.63;;;6.82;;
27383;SDS011;14851;51.166;4.760;2023-08-24T08:47:14;10.00;;;5.10;;
27383;SDS011;14851;51.166;4.760;2023-08-24T08:49:41;7.68;;;5.85;;
27383;SDS011;14851;51.166;4.760;2023-08-24T08:52:11;6.65;;;4.80;;
27383;SDS011;14851;51.166;4.760;2023-08-24T08:54:38;12.20;;;4.80;;
27383;SDS011;14851;51.166;4.760;2023-08-24T08:57:04;8.60;;;5.60;;
27383;SDS011;14851;51.166;4.760;2023-08-24T08:59:30;8.18;;;5.47;;
27383;SDS011;14851;51.166;4.760;2023-08-24T09:01:56;9.60;;;5.50;;
27383;SDS011;14851;51.166;4.760;2023-08-24T09:04:29;9.27;;;5.70;;
27383;SDS011;14851;51.166;4.760;2023-08-24T09:06:57;6.70;;;4.55;;
27383;SDS011;14851;51.166;4.760;2023-08-24T09:09:24;4.57;;;3.10;;
27383;SDS011;14851;51.166;4.760;2023-08-24T09:11:54;7.55;;;4.70;;
27383;SDS011;14851;51.166;4.760;2023-08-24T09:14:22;9.73;;;5.70;;
27383;SDS011;14851;51.166;4.760;2023-08-24T09:16:48;10.02;;;5.00;;
27383;SDS011;14851;51.166;4.760;2023-08-24T09:19:15;7.35;;;5.63;;
27383;SDS011;14851;51.166;4.760;2023-08-24T09:21:43;11.38;;;6.63;;
27383;SDS011;14851;51.166;4.760;2023-08-24T09:24:09;12.60;;;5.60;;
27383;SDS011;14851;51.166;4.760;2023-08-24T09:26:38;7.90;;;6.10;;
27383;SDS011;14851;51.166;4.760;2023-08-24T09:29:11;10.35;;;5.32;;
27383;SDS011;14851;51.166;4.760;2023-08-24T09:31:40;8.05;;;5.25;;
27383;SDS011;14851;51.166;4.760;2023-08-24T09:34:11;9.85;;;5.90;;
27383;SDS011;14851;51.166;4.760;2023-08-24T09:36:38;8.95;;;5.57;;
27383;SDS011;14851;51.166;4.760;2023-08-24T09:39:06;10.18;;;5.72;;
27383;SDS011;14851;51.166;4.760;2023-08-24T09:41:41;9.13;;;5.50;;
27383;SDS011;14851;51.166;4.760;2023-08-24T09:44:11;10.82;;;6.63;;
27383;SDS011;14851;51.166;4.760;2023-08-24T09:46:37;11.57;;;6.43;;
27383;SDS011;14851;51.166;4.760;2023-08-24T09:49:05;9.85;;;6.00;;
27383;SDS011;14851;51.166;4.760;2023-08-24T09:51:34;9.07;;;6.27;;
27383;SDS011;14851;51.166;4.760;2023-08-24T09:54:04;8.93;;;6.35;;
27383;SDS011;14851;51.166;4.760;2023-08-24T09:56:37;9.85;;;6.30;;
27383;SDS011;14851;51.166;4.760;2023-08-24T09:59:16;10.68;;;6.45;;
27383;SDS011;14851;51.166;4.760;2023-08-24T10:01:46;10.95;;;6.68;;
27383;SDS011;14851;51.166;4.760;2023-08-24T10:04:23;9.25;;;6.15;;
27383;SDS011;14851;51.166;4.760;2023-08-24T10:06:53;13.70;;;7.18;;
27383;SDS011;14851;51.166;4.760;2023-08-24T10:09:31;13.55;;;7.75;;
27383;SDS011;14851;51.166;4.760;2023-08-24T10:12:04;10.43;;;7.93;;
27383;SDS011;14851;51.166;4.760;2023-08-24T10:14:39;13.43;;;7.85;;
27383;SDS011;14851;51.166;4.760;2023-08-24T10:17:14;14.18;;;7.82;;
27383;SDS011;14851;51.166;4.760;2023-08-24T10:19:41;10.73;;;7.03;;
27383;SDS011;14851;51.166;4.760;2023-08-24T10:22:08;10.43;;;7.53;;
27383;SDS011;14851;51.166;4.760;2023-08-24T10:24:37;10.27;;;6.90;;
27383;SDS011;14851;51.166;4.760;2023-08-24T10:27:04;12.23;;;7.32;;
27383;SDS011;14851;51.166;4.760;2023-08-24T10:29:37;11.70;;;7.28;;
27383;SDS011;14851;51.166;4.760;2023-08-24T10:32:03;12.95;;;7.28;;
27383;SDS011;14851;51.166;4.760;2023-08-24T10:34:34;10.55;;;7.03;;
27383;SDS011;14851;51.166;4.760;2023-08-24T10:37:09;9.00;;;6.57;;
27383;SDS011;14851;51.166;4.760;2023-08-24T10:39:36;9.45;;;6.00;;
27383;SDS011;14851;51.166;4.760;2023-08-24T10:42:08;7.25;;;5.22;;
27383;SDS011;14851;51.166;4.760;2023-08-24T10:44:37;11.60;;;6.37;;
27383;SDS011;14851;51.166;4.760;2023-08-24T10:47:09;13.00;;;7.05;;
27383;SDS011;14851;51.166;4.760;2023-08-24T10:49:43;12.02;;;6.75;;
27383;SDS011;14851;51.166;4.760;2023-08-24T10:52:17;10.07;;;6.82;;
27383;SDS011;14851;51.166;4.760;2023-08-24T10:54:45;14.70;;;8.05;;
27383;SDS011;14851;51.166;4.760;2023-08-24T10:57:56;15.73;;;7.28;;
27383;SDS011;14851;51.166;4.760;2023-08-24T11:07:52;11.30;;;7.35;;
27383;SDS011;14851;51.166;4.760;2023-08-24T11:10:19;9.02;;;7.47;;
27383;SDS011;14851;51.166;4.760;2023-08-24T11:15:30;13.55;;;7.65;;
27383;SDS011;14851;51.166;4.760;2023-08-24T11:20:51;10.30;;;7.93;;
27383;SDS011;14851;51.166;4.760;2023-08-24T11:23:22;10.10;;;7.47;;
27383;SDS011;14851;51.166;4.760;2023-08-24T11:25:50;12.60;;;7.32;;
27383;SDS011;14851;51.166;4.760;2023-08-24T11:28:29;14.98;;;7.55;;
27383;SDS011;14851;51.166;4.760;2023-08-24T11:30:56;12.48;;;6.60;;
27383;SDS011;14851;51.166;4.760;2023-08-24T11:33:26;11.38;;;7.65;;
27383;SDS011;14851;51.166;4.760;2023-08-24T11:35:53;12.32;;;7.57;;
27383;SDS011;14851;51.166;4.760;2023-08-24T11:38:20;10.68;;;7.05;;
27383;SDS011;14851;51.166;4.760;2023-08-24T11:40:46;11.82;;;6.32;;
27383;SDS011;14851;51.166;4.760;2023-08-24T11:43:24;13.48;;;7.13;;
27383;SDS011;14851;51.166;4.760;2023-08-24T11:45:54;9.95;;;7.70;;
27383;SDS011;14851;51.166;4.760;2023-08-24T11:48:24;13.00;;;6.78;;
27383;SDS011;14851;51.166;4.760;2023-08-24T11:50:51;11.27;;;8.15;;
27383;SDS011;14851;51.166;4.760;2023-08-24T11:53:19;12.05;;;6.57;;
27383;SDS011;14851;51.166;4.760;2023-08-24T11:55:45;10.15;;;6.50;;
27383;SDS011;14851;51.166;4.760;2023-08-24T11:58:14;10.35;;;6.93;;
27383;SDS011;14851;51.166;4.760;2023-08-24T12:03:07;7.30;;;6.53;;
27383;SDS011;14851;51.166;4.760;2023-08-24T12:05:34;7.60;;;6.03;;
27383;SDS011;14851;51.166;4.760;2023-08-24T12:08:00;11.70;;;6.10;;
27383;SDS011;14851;51.166;4.760;2023-08-24T12:10:26;11.45;;;6.70;;
27383;SDS011;14851;51.166;4.760;2023-08-24T12:13:05;8.57;;;4.97;;
27383;SDS011;14851;51.166;4.760;2023-08-24T12:15:37;7.57;;;5.50;;
27383;SDS011;14851;51.166;4.760;2023-08-24T12:18:10;9.27;;;5.33;;
27383;SDS011;14851;51.166;4.760;2023-08-24T12:20:42;9.25;;;5.10;;
27383;SDS011;14851;51.166;4.760;2023-08-24T12:23:09;7.93;;;5.15;;
27383;SDS011;14851;51.166;4.760;2023-08-24T12:25:42;8.57;;;4.93;;
27383;SDS011;14851;51.166;4.760;2023-08-24T12:28:12;5.53;;;4.68;;
27383;SDS011;14851;51.166;4.760;2023-08-24T12:33:21;8.18;;;5.07;;
27383;SDS011;14851;51.166;4.760;2023-08-24T12:35:54;6.82;;;4.45;;
27383;SDS011;14851;51.166;4.760;2023-08-24T12:40:50;9.38;;;4.90;;
27383;SDS011;14851;51.166;4.760;2023-08-24T12:43:16;6.18;;;4.03;;
27383;SDS011;14851;51.166;4.760;2023-08-24T12:45:42;4.55;;;3.78;;
27383;SDS011;14851;51.166;4.760;2023-08-24T12:48:08;7.22;;;4.20;;
27383;SDS011;14851;51.166;4.760;2023-08-24T12:50:37;9.18;;;4.63;;
27383;SDS011;14851;51.166;4.760;2023-08-24T12:53:04;6.35;;;4.07;;
27383;SDS011;14851;51.166;4.760;2023-08-24T12:55:31;8.40;;;4.63;;
27383;SDS011;14851;51.166;4.760;2023-08-24T12:57:58;10.25;;;4.72;;
27383;SDS011;14851;51.166;4.760;2023-08-24T13:00:24;7.13;;;4.40;;
27383;SDS011;14851;51.166;4.760;2023-08-24T13:02:54;9.23;;;4.90;;
27383;SDS011;14851;51.166;4.760;2023-08-24T13:05:23;7.55;;;4.32;;
27383;SDS011;14851;51.166;4.760;2023-08-24T13:07:49;7.63;;;4.13;;
27383;SDS011;14851;51.166;4.760;2023-08-24T13:10:16;8.07;;;4.10;;
27383;SDS011;14851;51.166;4.760;2023-08-24T13:12:42;5.72;;;3.92;;
27383;SDS011;14851;51.166;4.760;2023-08-24T13:15:10;7.38;;;3.97;;
27383;SDS011;14851;51.166;4.760;2023-08-24T13:20:05;5.85;;;3.78;;
27383;SDS011;14851;51.166;4.760;2023-08-24T13:22:36;5.82;;;3.90;;
27383;SDS011;14851;51.166;4.760;2023-08-24T13:25:02;5.13;;;4.18;;
27383;SDS011;14851;51.166;4.760;2023-08-24T13:27:28;6.47;;;3.80;;
27383;SDS011;14851;51.166;4.760;2023-08-24T13:29:59;5.35;;;3.58;;
27383;SDS011;14851;51.166;4.760;2023-08-24T13:32:25;6.38;;;3.88;;
27383;SDS011;14851;51.166;4.760;2023-08-24T13:34:53;4.38;;;3.17;;
27383;SDS011;14851;51.166;4.760;2023-08-24T13:37:21;5.85;;;3.78;;
27383;SDS011;14851;51.166;4.760;2023-08-24T13:39:48;4.40;;;2.92;;
27383;SDS011;14851;51.166;4.760;2023-08-24T13:42:14;3.58;;;2.90;;
27383;SDS011;14851;51.166;4.760;2023-08-24T13:44:39;5.10;;;3.15;;
27383;SDS011;14851;51.166;4.760;2023-08-24T13:47:05;5.47;;;3.10;;
27383;SDS011;14851;51.166;4.760;2023-08-24T13:49:31;5.00;;;2.67;;
27383;SDS011;14851;51.166;4.760;2023-08-24T13:51:59;3.80;;;2.97;;
27383;SDS011;14851;51.166;4.760;2023-08-24T13:54:28;3.17;;;2.78;;
27383;SDS011;14851;51.166;4.760;2023-08-24T13:56:55;3.97;;;2.97;;
27383;SDS011;14851;51.166;4.760;2023-08-24T13:59:27;4.80;;;2.72;;
27383;SDS011;14851;51.166;4.760;2023-08-24T14:01:53;4.00;;;2.63;;
27383;SDS011;14851;51.166;4.760;2023-08-24T14:04:19;3.53;;;2.22;;
27383;SDS011;14851;51.166;4.760;2023-08-24T14:06:47;5.78;;;2.50;;
27383;SDS011;14851;51.166;4.760;2023-08-24T14:09:13;5.68;;;2.60;;
27383;SDS011;14851;51.166;4.760;2023-08-24T14:11:40;6.22;;;2.70;;
27383;SDS011;14851;51.166;4.760;2023-08-24T14:14:08;4.82;;;1.98;;
27383;SDS011;14851;51.166;4.760;2023-08-24T14:16:36;4.40;;;2.50;;
27383;SDS011;14851;51.166;4.760;2023-08-24T14:19:02;3.63;;;2.03;;
27383;SDS011;14851;51.166;4.760;2023-08-24T14:21:28;3.15;;;1.80;;
27383;SDS011;14851;51.166;4.760;2023-08-24T14:23:53;4.18;;;2.00;;
27383;SDS011;14851;51.166;4.760;2023-08-24T14:26:19;3.83;;;1.85;;
27383;SDS011;14851;51.166;4.760;2023-08-24T14:28:49;4.20;;;1.92;;
27383;SDS011;14851;51.166;4.760;2023-08-24T14:31:19;6.22;;;2.03;;
27383;SDS011;14851;51.166;4.760;2023-08-24T14:33:51;3.65;;;1.75;;
27383;SDS011;14851;51.166;4.760;2023-08-24T14:36:19;5.00;;;1.70;;
27383;SDS011;14851;51.166;4.760;2023-08-24T14:38:47;3.28;;;2.05;;
27383;SDS011;14851;51.166;4.760;2023-08-24T14:41:16;3.83;;;1.70;;
27383;SDS011;14851;51.166;4.760;2023-08-24T14:43:42;4.15;;;2.15;;
27383;SDS011;14851;51.166;4.760;2023-08-24T14:46:08;3.13;;;1.80;;
27383;SDS011;14851;51.166;4.760;2023-08-24T14:48:34;4.38;;;1.95;;
27383;SDS011;14851;51.166;4.760;2023-08-24T14:51:00;4.80;;;2.00;;
27383;SDS011;14851;51.166;4.760;2023-08-24T14:53:29;3.40;;;1.85;;
27383;SDS011;14851;51.166;4.760;2023-08-24T14:55:55;5.13;;;1.83;;
27383;SDS011;14851;51.166;4.760;2023-08-24T14:58:22;4.45;;;1.73;;
27383;SDS011;14851;51.166;4.760;2023-08-24T15:00:49;5.03;;;1.95;;
27383;SDS011;14851;51.166;4.760;2023-08-24T15:03:16;4.63;;;1.85;;
27383;SDS011;14851;51.166;4.760;2023-08-24T15:05:46;2.47;;;1.42;;
27383;SDS011;14851;51.166;4.760;2023-08-24T15:08:23;4.38;;;1.45;;
27383;SDS011;14851;51.166;4.760;2023-08-24T15:10:53;3.80;;;1.60;;
27383;SDS011;14851;51.166;4.760;2023-08-24T15:13:21;3.45;;;1.52;;
27383;SDS011;14851;51.166;4.760;2023-08-24T15:15:47;3.38;;;1.75;;
27383;SDS011;14851;51.166;4.760;2023-08-24T15:18:13;3.70;;;1.42;;